Etusivu
METAR-TAF:

METAR-TAF

Lentoasemat :

Halmstad, Ruotsi

Leveyspiiri: 56-41N, Pituuspiiri: 012-50E, korkeus merenpinnasta: 30 m

Tämänhetkinen sää

Tämä raportti tehtiin 38 minuuttia sitten, kello 01.20 UTC
Tuuli 15 kn lännestä
Lämpötila 4°C
Kosteus 87%
Ilmanpaine 1007 hPa
Näkyvyys 10 km tai enemmän

METAR: ESMT 200120Z AUTO 27015KT 9999 BKN014/// OVC019/// 04/02 Q1007

Aika: 02:58 (01:58 UTC)

Sääennuste

Tämä raportti tehtiin 8 tuntia ja 55 minuuttia sitten, kello 17.03 UTC
Ennuste voimassa 19. päivästä klo 18 UTC - 19. päivään klo 20 UTC
Tuuli 15 kn lännestä
Näkyvyys 10 km tai enemmän
Hajonneita pilviä 3000 ft:n korkeudessa
Ajoittain
19. päivästä klo 18 UTC - 19. päivään klo 20 UTC
Tuuli 16 kn lännestä puuskistuen 26 kn:hen

TAF: ESMT 191703Z 1918/1920 27015KT 9999 BKN030 TEMPO 1918/1920 27016G26KT

Säähavainnot ja -ennusteet yli 4000 lentoasemalta (METAR- ja TAF-raportit).

Käytössä olevat sääasemat on merkitty karttaan keltaisilla ja punaisilla pisteillä.

Aseta hiiri pisteen päälle nähdäksesi sääaseman nimen.

Klikkaa sitten nähdäksesi säähavainnot ja -ennusteet.

Kartan vaihtaminen: klikkaa mustalla rastilla varustettuja vihreitä pisteitä, niin voit zoomata sisään; viivalla varustettua vihreää pistettä, niin voit zoomata ulos tai vihreitä nuolia, niin pääset viereisille kartoille.


METAR-TAF: